Time;durP1;ratioP1;P1;durP2;ratioP2;P2;SDS_P1;SDS_P2;PMS_P1;PMS_P2;Temp;Humidity;BMP_temperature;BMP_pressure;BME280_temperature;BME280_humidity;BME280_pressure;Samples;Min_cycle;Max_cycle;Signal;HPM_P1;HPM_P2
2022/03/02 00:20:12;;;;;;;22.98;10.63;;;;;;;;;;4950364;28;20065;-82
2022/03/02 00:22:40;;;;;;;26.30;10.98;;;;;;;;;;4930998;28;20059;-81
2022/03/02 00:25:08;;;;;;;29.65;11.10;;;;;;;;;;4953908;28;21371;-82
2022/03/02 00:27:36;;;;;;;23.05;11.60;;;;;;;;;;4956520;28;20055;-82
2022/03/02 00:30:12;;;;;;;26.70;11.07;;;;;;;;;;4929125;28;20055;-83
2022/03/02 00:32:40;;;;;;;25.10;10.75;;;;;;;;;;4952489;28;20098;-81
2022/03/02 00:35:08;;;;;;;25.85;11.48;;;;;;;;;;4949801;28;20055;-79
2022/03/02 00:37:36;;;;;;;25.77;10.75;;;;;;;;;;4944961;28;20047;-79
2022/03/02 00:40:05;;;;;;;26.55;10.93;;;;;;;;;;4949847;28;20063;-78
2022/03/02 00:42:32;;;;;;;21.15;10.80;;;;;;;;;;4969671;28;20396;-81
2022/03/02 00:45:00;;;;;;;23.63;11.02;;;;;;;;;;5009602;28;20045;-81
2022/03/02 00:47:28;;;;;;;25.95;10.88;;;;;;;;;;5010361;28;20046;-81
2022/03/02 00:49:56;;;;;;;24.30;11.48;;;;;;;;;;5016395;28;20100;-81
2022/03/02 00:52:24;;;;;;;29.02;11.20;;;;;;;;;;4995239;28;20139;-81
2022/03/02 00:54:52;;;;;;;28.77;11.70;;;;;;;;;;5011980;28;20042;-83
2022/03/02 00:57:20;;;;;;;23.38;10.18;;;;;;;;;;5014203;28;20046;-81
2022/03/02 00:59:48;;;;;;;24.65;11.60;;;;;;;;;;5012630;28;21529;-79
2022/03/02 01:02:16;;;;;;;29.40;11.48;;;;;;;;;;5013039;28;20049;-82
2022/03/02 02:09:47;;;;;;;23.52;9.95;;;;;;;;;;5018680;28;20067;-83
2022/03/02 02:12:14;;;;;;;26.85;11.05;;;;;;;;;;4999427;28;21520;-83
2022/03/02 02:14:42;;;;;;;22.25;10.00;;;;;;;;;;5003515;28;20057;-83
2022/03/02 03:50:44;;;;;;;31.63;11.40;;;;;;;;;;5015306;28;20050;-82
2022/03/02 03:53:12;;;;;;;29.95;12.68;;;;;;;;;;5011752;28;20042;-83
2022/03/02 03:55:40;;;;;;;35.45;14.55;;;;;;;;;;4991360;28;20053;-83
2022/03/02 03:58:08;;;;;;;34.97;13.57;;;;;;;;;;5013217;28;20052;-83
2022/03/02 04:00:36;;;;;;;25.70;11.15;;;;;;;;;;5000258;28;20070;-83
2022/03/02 04:03:04;;;;;;;24.38;11.25;;;;;;;;;;5013500;28;20045;-83
2022/03/02 04:18:36;;;;;;;26.58;11.13;;;;;;;;;;5009959;28;20128;-83
2022/03/02 04:21:04;;;;;;;28.08;11.32;;;;;;;;;;5009654;28;20537;-84
2022/03/02 06:02:38;;;;;;;24.00;10.20;;;;;;;;;;5012022;28;20052;-83
2022/03/02 06:05:09;;;;;;;26.33;10.95;;;;;;;;;;5008407;28;20056;-84
2022/03/02 06:07:43;;;;;;;30.25;11.52;;;;;;;;;;5015403;28;20083;-84
2022/03/02 06:10:26;;;;;;;25.25;11.23;;;;;;;;;;4996953;28;20046;-84
2022/03/02 06:12:54;;;;;;;23.63;10.05;;;;;;;;;;5013568;28;20394;-84
2022/03/02 06:15:22;;;;;;;23.55;10.68;;;;;;;;;;4996883;28;20060;-83
2022/03/02 06:17:50;;;;;;;24.25;9.90;;;;;;;;;;4995160;28;20153;-83
2022/03/02 06:20:18;;;;;;;24.55;10.80;;;;;;;;;;4993717;28;20868;-85
2022/03/02 06:23:00;;;;;;;19.45;10.63;;;;;;;;;;5021601;28;20467;-82
2022/03/02 06:25:28;;;;;;;24.48;11.07;;;;;;;;;;5010019;28;20073;-82
2022/03/02 06:27:56;;;;;;;34.88;11.63;;;;;;;;;;5014255;28;20072;-82
2022/03/02 06:30:24;;;;;;;23.42;10.88;;;;;;;;;;5014481;28;20046;-83
2022/03/02 06:33:18;;;;;;;26.98;10.82;;;;;;;;;;5009703;28;20115;-86
2022/03/02 06:35:47;;;;;;;22.27;10.35;;;;;;;;;;5008045;28;20154;-82
2022/03/02 06:38:17;;;;;;;25.23;9.93;;;;;;;;;;5002243;28;20046;-83
2022/03/02 06:41:11;;;;;;;29.00;11.85;;;;;;;;;;5005384;28;20084;-82
2022/03/02 06:44:00;;;;;;;24.40;11.02;;;;;;;;;;5009700;28;20049;-81
2022/03/02 06:46:50;;;;;;;25.48;11.75;;;;;;;;;;5007554;28;20081;-83
2022/03/02 06:49:38;;;;;;;25.83;10.88;;;;;;;;;;5010031;28;20487;-82
2022/03/02 06:52:09;;;;;;;26.60;10.45;;;;;;;;;;5006032;28;20093;-81
2022/03/02 06:54:42;;;;;;;26.45;10.82;;;;;;;;;;5014059;28;20077;-83
2022/03/02 06:57:13;;;;;;;26.67;12.27;;;;;;;;;;5018512;28;20056;-82
2022/03/02 06:59:49;;;;;;;24.65;11.07;;;;;;;;;;5009254;28;20047;-82
2022/03/02 07:02:26;;;;;;;25.60;11.50;;;;;;;;;;5016193;28;20064;-82
2022/03/02 07:04:55;;;;;;;28.23;11.40;;;;;;;;;;5030598;28;20057;-82
2022/03/02 07:07:23;;;;;;;27.40;12.27;;;;;;;;;;5017624;28;20045;-82
2022/03/02 07:09:52;;;;;;;28.63;11.88;;;;;;;;;;5027778;28;20065;-83
2022/03/02 07:12:21;;;;;;;24.80;11.40;;;;;;;;;;5030400;28;20467;-80
2022/03/02 07:14:50;;;;;;;29.20;12.40;;;;;;;;;;5009216;28;20050;-80
2022/03/02 07:17:16;;;;;;;26.20;11.25;;;;;;;;;;5032432;28;20045;-79
2022/03/02 07:19:47;;;;;;;36.35;16.60;;;;;;;;;;5007970;28;21025;-83
2022/03/02 07:22:21;;;;;;;37.42;15.30;;;;;;;;;;5013367;28;20041;-81
2022/03/02 07:24:54;;;;;;;40.67;16.48;;;;;;;;;;5009872;28;20045;-81
2022/03/02 07:27:23;;;;;;;29.02;14.15;;;;;;;;;;5013721;28;20051;-81
2022/03/02 07:29:52;;;;;;;32.25;15.10;;;;;;;;;;5008486;28;20048;-80
2022/03/02 07:32:26;;;;;;;30.33;14.25;;;;;;;;;;5007234;28;20053;-82
2022/03/02 07:34:58;;;;;;;28.67;12.77;;;;;;;;;;5031084;28;20057;-79
2022/03/02 07:37:27;;;;;;;34.83;14.95;;;;;;;;;;5010327;28;20509;-82
2022/03/02 07:39:55;;;;;;;39.63;17.65;;;;;;;;;;5006837;28;20068;-81
2022/03/02 07:42:24;;;;;;;31.40;14.02;;;;;;;;;;5024805;28;20049;-80
2022/03/02 07:44:54;;;;;;;27.08;13.13;;;;;;;;;;5024717;28;20114;-81
2022/03/02 07:47:21;;;;;;;30.85;12.65;;;;;;;;;;5022219;28;20061;-80
2022/03/02 07:49:48;;;;;;;35.45;12.77;;;;;;;;;;5009132;28;20049;-81
2022/03/02 07:52:17;;;;;;;29.60;12.43;;;;;;;;;;4994000;28;20137;-82
2022/03/02 07:54:46;;;;;;;23.80;11.68;;;;;;;;;;5008839;28;20056;-82
2022/03/02 07:57:15;;;;;;;23.63;11.30;;;;;;;;;;5027896;28;20038;-81
2022/03/02 07:59:49;;;;;;;24.27;11.40;;;;;;;;;;5010873;28;20045;-84
2022/03/02 08:02:20;;;;;;;29.83;11.85;;;;;;;;;;5025342;28;20056;-81
2022/03/02 08:04:53;;;;;;;27.88;12.05;;;;;;;;;;5024818;28;20057;-85
2022/03/02 08:07:21;;;;;;;23.75;10.40;;;;;;;;;;5024380;28;20084;-82
2022/03/02 08:09:52;;;;;;;27.40;11.23;;;;;;;;;;5010460;28;20041;-82
2022/03/02 08:12:23;;;;;;;25.65;11.23;;;;;;;;;;4993127;28;20045;-82
2022/03/02 08:14:53;;;;;;;25.60;11.52;;;;;;;;;;5009332;28;20053;-82
2022/03/02 08:17:21;;;;;;;36.88;14.68;;;;;;;;;;5027406;28;20205;-83
2022/03/02 08:19:48;;;;;;;25.30;10.80;;;;;;;;;;5026268;28;20107;-84
2022/03/02 08:22:19;;;;;;;23.75;11.02;;;;;;;;;;5027030;28;20132;-84
2022/03/02 08:24:55;;;;;;;28.40;13.27;;;;;;;;;;5027795;28;20049;-84
2022/03/02 08:27:22;;;;;;;23.67;10.85;;;;;;;;;;5030976;28;20111;-84
2022/03/02 08:29:56;;;;;;;20.45;9.88;;;;;;;;;;4992546;28;20069;-81
2022/03/02 08:32:25;;;;;;;25.02;10.48;;;;;;;;;;4977753;28;20044;-81
2022/03/02 08:34:52;;;;;;;23.95;10.35;;;;;;;;;;5026004;28;20053;-81
2022/03/02 08:37:22;;;;;;;21.70;9.25;;;;;;;;;;5010095;28;20464;-81
2022/03/02 08:39:50;;;;;;;25.70;9.88;;;;;;;;;;5011481;28;20049;-84
2022/03/02 08:42:18;;;;;;;22.92;9.68;;;;;;;;;;5013747;28;20136;-85
2022/03/02 08:44:46;;;;;;;23.38;10.68;;;;;;;;;;5010283;28;20119;-84
2022/03/02 08:47:14;;;;;;;32.78;11.55;;;;;;;;;;5029357;28;20072;-85
2022/03/02 08:49:42;;;;;;;26.65;9.68;;;;;;;;;;5003442;28;20058;-85
2022/03/02 08:52:10;;;;;;;28.73;11.63;;;;;;;;;;5023135;28;20127;-84
2022/03/02 08:54:45;;;;;;;27.33;11.02;;;;;;;;;;5028705;28;20123;-85
2022/03/02 08:57:14;;;;;;;28.70;13.60;;;;;;;;;;5010304;28;20077;-84
2022/03/02 08:59:43;;;;;;;44.88;19.17;;;;;;;;;;5010043;28;20069;-84
2022/03/02 09:02:10;;;;;;;37.08;16.45;;;;;;;;;;4992384;28;20107;-84
2022/03/02 09:04:38;;;;;;;27.38;13.18;;;;;;;;;;5028897;28;20430;-85
2022/03/02 09:07:06;;;;;;;38.85;16.50;;;;;;;;;;4994276;28;20045;-84
2022/03/02 09:09:35;;;;;;;25.63;12.55;;;;;;;;;;5008035;28;20057;-84
2022/03/02 09:12:03;;;;;;;28.92;12.93;;;;;;;;;;4992569;28;20501;-83
2022/03/02 09:14:30;;;;;;;25.85;12.68;;;;;;;;;;5026708;28;20053;-85
2022/03/02 09:17:00;;;;;;;24.20;11.30;;;;;;;;;;4992846;28;20057;-84
2022/03/02 09:19:29;;;;;;;25.42;12.10;;;;;;;;;;5013877;28;20143;-81
2022/03/02 09:21:57;;;;;;;24.08;9.77;;;;;;;;;;5022107;28;20053;-80
2022/03/02 09:24:29;;;;;;;25.50;10.85;;;;;;;;;;5028003;28;21028;-80
2022/03/02 09:27:01;;;;;;;25.17;11.13;;;;;;;;;;5009540;28;20052;-80
2022/03/02 09:29:30;;;;;;;25.38;11.75;;;;;;;;;;5011990;28;20111;-80
2022/03/02 09:32:02;;;;;;;24.00;11.30;;;;;;;;;;5030038;28;20092;-80
2022/03/02 09:34:30;;;;;;;25.40;11.40;;;;;;;;;;5014412;28;20053;-80
2022/03/02 09:36:59;;;;;;;24.40;11.05;;;;;;;;;;5027029;28;20080;-81
2022/03/02 09:39:26;;;;;;;24.75;10.80;;;;;;;;;;4998353;28;20072;-80
2022/03/02 09:42:10;;;;;;;22.52;9.32;;;;;;;;;;5027680;28;20152;-80
2022/03/02 09:44:44;;;;;;;26.98;11.45;;;;;;;;;;5013305;28;20132;-80
2022/03/02 09:47:17;;;;;;;25.85;11.95;;;;;;;;;;5028244;28;20115;-82
2022/03/02 09:49:51;;;;;;;29.75;10.85;;;;;;;;;;5027326;28;20604;-81
2022/03/02 09:52:19;;;;;;;26.83;10.95;;;;;;;;;;5016491;28;20057;-81
2022/03/02 09:54:52;;;;;;;26.35;10.55;;;;;;;;;;5028060;28;20080;-80
2022/03/02 09:57:24;;;;;;;20.73;8.68;;;;;;;;;;5027431;28;20381;-81
2022/03/02 09:59:56;;;;;;;28.05;11.77;;;;;;;;;;5009912;28;20046;-80
2022/03/02 10:02:42;;;;;;;25.27;10.65;;;;;;;;;;5027304;28;20045;-81
2022/03/02 10:05:31;;;;;;;19.42;8.60;;;;;;;;;;5030374;28;20389;-80
2022/03/02 10:08:19;;;;;;;19.75;9.68;;;;;;;;;;5015080;28;20064;-80
2022/03/02 10:11:04;;;;;;;20.13;9.35;;;;;;;;;;5012154;28;20046;-80
2022/03/02 10:13:34;;;;;;;18.85;8.80;;;;;;;;;;5032452;28;20057;-81
2022/03/02 10:16:21;;;;;;;20.92;8.73;;;;;;;;;;5008714;28;20057;-81
2022/03/02 10:19:06;;;;;;;17.58;8.85;;;;;;;;;;5011454;28;20061;-82
2022/03/02 10:22:27;;;;;;;14.35;7.47;;;;;;;;;;5000461;28;20069;-82
2022/03/02 10:25:03;;;;;;;17.80;7.60;;;;;;;;;;5011586;28;20058;-83
2022/03/02 10:27:39;;;;;;;14.82;7.95;;;;;;;;;;5024951;28;20054;-82
2022/03/02 10:30:09;;;;;;;16.40;7.20;;;;;;;;;;5032185;28;20150;-81
2022/03/02 10:32:41;;;;;;;16.95;8.00;;;;;;;;;;5026834;28;20050;-82
2022/03/02 10:35:13;;;;;;;14.68;7.30;;;;;;;;;;5009877;28;20069;-81
2022/03/02 10:38:03;;;;;;;12.98;6.10;;;;;;;;;;5030663;28;20127;-81
2022/03/02 10:40:32;;;;;;;16.80;7.90;;;;;;;;;;5014589;28;20049;-84
2022/03/02 10:43:04;;;;;;;18.02;8.85;;;;;;;;;;5027771;28;20124;-85
2022/03/02 10:45:41;;;;;;;19.02;8.48;;;;;;;;;;5030099;28;20069;-84
2022/03/02 10:48:38;;;;;;;16.83;7.43;;;;;;;;;;5029399;28;20056;-84
2022/03/02 10:51:07;;;;;;;17.13;8.60;;;;;;;;;;5008533;28;20041;-83
2022/03/02 10:53:44;;;;;;;16.65;8.18;;;;;;;;;;5028523;28;20049;-83
2022/03/02 10:56:13;;;;;;;17.63;8.45;;;;;;;;;;5028376;28;20052;-84
2022/03/02 10:58:48;;;;;;;20.05;8.50;;;;;;;;;;5033581;28;20083;-84
2022/03/02 11:01:20;;;;;;;17.17;8.38;;;;;;;;;;5011861;28;20042;-83
2022/03/02 11:03:48;;;;;;;14.23;7.75;;;;;;;;;;5009795;28;20158;-83
2022/03/02 11:06:17;;;;;;;16.83;9.05;;;;;;;;;;5027762;28;20073;-83
2022/03/02 11:08:44;;;;;;;20.27;9.13;;;;;;;;;;5027603;28;20437;-83
2022/03/02 11:11:12;;;;;;;13.30;7.25;;;;;;;;;;5023936;28;20045;-83
2022/03/02 11:13:41;;;;;;;16.50;7.63;;;;;;;;;;5012261;28;20056;-83
2022/03/02 11:16:08;;;;;;;15.30;7.35;;;;;;;;;;5027746;28;20596;-79
2022/03/02 11:18:38;;;;;;;18.58;7.20;;;;;;;;;;5023165;28;20155;-80
2022/03/02 11:21:31;;;;;;;18.27;8.27;;;;;;;;;;5014168;28;20192;-80
2022/03/02 11:24:16;;;;;;;18.15;8.65;;;;;;;;;;5009553;28;20698;-80
2022/03/02 11:26:58;;;;;;;21.08;8.70;;;;;;;;;;4998452;28;20107;-81
2022/03/02 11:29:41;;;;;;;19.67;8.18;;;;;;;;;;5013092;28;20067;-80
2022/03/02 11:32:25;;;;;;;18.15;9.20;;;;;;;;;;5014649;28;20054;-82
2022/03/02 11:34:58;;;;;;;20.08;8.98;;;;;;;;;;5021276;28;20050;-81
2022/03/02 11:37:28;;;;;;;22.23;10.20;;;;;;;;;;5019528;28;20111;-81
2022/03/02 11:39:56;;;;;;;22.20;9.75;;;;;;;;;;5028412;28;20509;-81
2022/03/02 11:42:30;;;;;;;21.70;8.88;;;;;;;;;;5024560;28;20053;-80
2022/03/02 11:45:14;;;;;;;24.27;10.02;;;;;;;;;;4998507;28;20045;-80
2022/03/02 11:47:55;;;;;;;20.58;9.55;;;;;;;;;;5022449;28;20049;-80
2022/03/02 11:50:36;;;;;;;18.70;8.95;;;;;;;;;;5026748;28;20046;-81
2022/03/02 11:53:32;;;;;;;19.67;8.45;;;;;;;;;;5022860;28;20068;-80
2022/03/02 11:56:15;;;;;;;22.48;9.63;;;;;;;;;;5007582;28;20468;-80
2022/03/02 11:59:01;;;;;;;22.70;10.15;;;;;;;;;;5028273;28;20148;-80
2022/03/02 12:01:51;;;;;;;22.33;10.00;;;;;;;;;;5024019;28;20346;-80
2022/03/02 12:04:35;;;;;;;21.63;10.70;;;;;;;;;;5010451;28;20650;-81
2022/03/02 12:07:16;;;;;;;20.00;9.68;;;;;;;;;;4997471;28;20069;-80
2022/03/02 12:09:58;;;;;;;22.00;9.65;;;;;;;;;;5023244;28;20057;-80
2022/03/02 12:12:26;;;;;;;24.70;10.55;;;;;;;;;;5029917;28;20148;-81
2022/03/02 12:14:57;;;;;;;21.63;10.25;;;;;;;;;;5033873;28;20064;-82
2022/03/02 12:17:28;;;;;;;24.67;10.32;;;;;;;;;;5011190;28;20120;-81
2022/03/02 12:19:59;;;;;;;21.63;10.05;;;;;;;;;;5035185;28;20595;-81
2022/03/02 12:22:35;;;;;;;20.02;11.10;;;;;;;;;;5011641;28;20045;-81
2022/03/02 12:25:04;;;;;;;26.38;11.60;;;;;;;;;;5027162;28;20124;-81
2022/03/02 12:27:32;;;;;;;22.08;9.57;;;;;;;;;;5011112;28;20850;-80
2022/03/02 12:30:05;;;;;;;21.75;10.65;;;;;;;;;;5026791;28;20061;-81
2022/03/02 12:32:37;;;;;;;20.67;9.50;;;;;;;;;;5013401;28;20049;-83
2022/03/02 12:35:07;;;;;;;21.38;10.25;;;;;;;;;;5031681;28;20480;-80
2022/03/02 12:37:34;;;;;;;22.00;10.02;;;;;;;;;;5031345;28;20060;-81
2022/03/02 12:40:06;;;;;;;22.73;10.40;;;;;;;;;;5024200;28;20041;-81
2022/03/02 12:42:37;;;;;;;21.17;9.57;;;;;;;;;;5025383;28;20056;-80
2022/03/02 12:45:05;;;;;;;23.90;10.25;;;;;;;;;;5011071;28;20069;-81
2022/03/02 12:47:33;;;;;;;17.52;9.23;;;;;;;;;;4991675;28;20063;-80
2022/03/02 12:50:07;;;;;;;21.08;9.38;;;;;;;;;;5012402;28;20045;-80
2022/03/02 12:52:34;;;;;;;23.13;10.13;;;;;;;;;;5021116;28;20045;-81
2022/03/02 12:55:05;;;;;;;19.92;9.60;;;;;;;;;;5024029;28;20052;-81
2022/03/02 12:57:33;;;;;;;19.73;9.05;;;;;;;;;;5030150;28;20092;-80
2022/03/02 13:00:09;;;;;;;20.23;9.15;;;;;;;;;;5013694;28;20042;-81
2022/03/02 13:02:38;;;;;;;20.30;9.32;;;;;;;;;;5007290;28;20130;-80
2022/03/02 13:05:06;;;;;;;25.42;10.27;;;;;;;;;;5013732;28;20071;-81
2022/03/02 13:07:34;;;;;;;21.25;10.02;;;;;;;;;;5031234;28;20046;-81
2022/03/02 13:10:08;;;;;;;21.73;9.18;;;;;;;;;;5015195;28;20117;-80
2022/03/02 13:12:41;;;;;;;22.80;10.20;;;;;;;;;;5030520;28;20052;-81
2022/03/02 13:15:17;;;;;;;22.23;10.20;;;;;;;;;;5014452;28;20473;-80
2022/03/02 13:17:45;;;;;;;24.02;9.95;;;;;;;;;;5010308;28;20057;-81
2022/03/02 13:20:17;;;;;;;24.15;10.40;;;;;;;;;;5008575;28;20052;-80
2022/03/02 13:22:46;;;;;;;24.27;10.55;;;;;;;;;;5031177;28;20041;-80
2022/03/02 13:25:15;;;;;;;25.92;10.10;;;;;;;;;;4999788;28;20072;-80
2022/03/02 13:28:06;;;;;;;23.83;10.13;;;;;;;;;;5029386;28;20898;-80
2022/03/02 13:30:34;;;;;;;23.13;10.55;;;;;;;;;;5025053;28;20124;-80
2022/03/02 13:33:07;;;;;;;25.45;9.82;;;;;;;;;;5027965;28;20049;-80
2022/03/02 13:35:57;;;;;;;23.33;9.93;;;;;;;;;;5018534;28;20148;-81
2022/03/02 13:38:40;;;;;;;23.20;10.07;;;;;;;;;;5032954;28;20065;-81
2022/03/02 13:41:08;;;;;;;21.27;10.20;;;;;;;;;;5011209;28;20166;-81
2022/03/02 13:43:37;;;;;;;20.67;8.82;;;;;;;;;;5010000;28;20046;-81
2022/03/02 13:46:04;;;;;;;20.83;7.82;;;;;;;;;;5031501;28;20090;-80
2022/03/02 13:48:32;;;;;;;20.95;9.52;;;;;;;;;;4998442;28;20057;-80
2022/03/02 13:51:06;;;;;;;20.38;8.68;;;;;;;;;;5031786;28;20473;-80
2022/03/02 13:53:46;;;;;;;27.17;10.27;;;;;;;;;;5025553;28;20055;-80
2022/03/02 13:56:16;;;;;;;24.92;9.95;;;;;;;;;;5030057;28;20137;-80
2022/03/02 13:58:48;;;;;;;19.30;9.20;;;;;;;;;;5031414;28;20041;-82
2022/03/02 14:01:20;;;;;;;23.98;9.68;;;;;;;;;;5015724;28;20037;-80
2022/03/02 14:04:11;;;;;;;20.88;8.85;;;;;;;;;;5033539;28;20045;-80
2022/03/02 14:06:40;;;;;;;19.92;9.23;;;;;;;;;;5035130;28;20128;-80
2022/03/02 14:09:10;;;;;;;22.25;9.60;;;;;;;;;;5016558;28;20041;-80
2022/03/02 14:11:41;;;;;;;20.98;9.65;;;;;;;;;;5027032;28;20044;-80
2022/03/02 14:14:13;;;;;;;22.05;8.95;;;;;;;;;;5001106;28;20092;-85
2022/03/02 14:17:09;;;;;;;26.92;11.20;;;;;;;;;;5018057;28;20061;-85
2022/03/02 14:19:43;;;;;;;22.45;10.35;;;;;;;;;;5031711;28;20468;-85
2022/03/02 14:22:16;;;;;;;23.15;10.10;;;;;;;;;;5016832;28;20076;-85
2022/03/02 14:24:46;;;;;;;22.70;9.95;;;;;;;;;;5016369;28;20049;-85
2022/03/02 14:27:14;;;;;;;21.75;9.38;;;;;;;;;;5030609;28;20394;-84
2022/03/02 14:30:03;;;;;;;22.58;9.88;;;;;;;;;;5010802;28;20061;-84
2022/03/02 14:32:37;;;;;;;24.25;10.75;;;;;;;;;;5023545;28;20061;-84
2022/03/02 14:35:09;;;;;;;21.52;9.23;;;;;;;;;;5016995;28;20136;-83
2022/03/02 14:37:43;;;;;;;24.52;10.25;;;;;;;;;;5030906;28;20046;-83
2022/03/02 14:40:24;;;;;;;26.20;10.38;;;;;;;;;;5031886;28;20413;-83
2022/03/02 14:43:00;;;;;;;22.50;9.95;;;;;;;;;;5036434;28;20444;-84
2022/03/02 14:45:32;;;;;;;24.02;10.13;;;;;;;;;;5035213;28;20080;-84
2022/03/02 14:48:11;;;;;;;23.67;10.23;;;;;;;;;;5014629;28;20088;-84
2022/03/02 14:50:48;;;;;;;24.35;11.10;;;;;;;;;;5007476;28;20057;-85
2022/03/02 14:53:27;;;;;;;23.75;9.77;;;;;;;;;;5009528;28;20050;-81
2022/03/02 14:56:03;;;;;;;25.70;9.98;;;;;;;;;;5031975;28;20109;-81
2022/03/02 14:58:36;;;;;;;29.85;11.77;;;;;;;;;;5017177;28;20049;-80
2022/03/02 15:01:07;;;;;;;25.77;10.40;;;;;;;;;;5011996;28;20322;-82
2022/03/02 15:03:49;;;;;;;25.38;11.38;;;;;;;;;;5029490;28;20112;-81
2022/03/02 15:06:21;;;;;;;20.27;10.35;;;;;;;;;;5028060;28;20065;-80
2022/03/02 15:08:48;;;;;;;23.30;10.30;;;;;;;;;;5024674;28;20053;-80
2022/03/02 15:11:39;;;;;;;24.48;11.52;;;;;;;;;;5023641;28;20060;-80
2022/03/02 15:17:03;;;;;;;27.73;11.98;;;;;;;;;;5014657;28;20137;-80
2022/03/02 15:19:38;;;;;;;23.42;10.73;;;;;;;;;;5034043;28;20041;-80
2022/03/02 15:22:22;;;;;;;28.20;12.32;;;;;;;;;;4984808;28;20052;-84
2022/03/02 15:24:54;;;;;;;26.38;11.75;;;;;;;;;;5008203;28;20058;-84
2022/03/02 15:27:25;;;;;;;25.40;11.95;;;;;;;;;;5008678;28;20430;-84
2022/03/02 15:29:53;;;;;;;27.30;12.57;;;;;;;;;;5006506;28;20117;-84
2022/03/02 15:32:32;;;;;;;32.08;13.50;;;;;;;;;;5012358;28;20058;-84
2022/03/02 15:35:15;;;;;;;25.92;13.05;;;;;;;;;;5014211;28;20070;-84
2022/03/02 15:37:50;;;;;;;28.00;12.85;;;;;;;;;;4995323;28;20065;-83
2022/03/02 15:40:20;;;;;;;29.83;13.23;;;;;;;;;;5014728;28;21439;-84
2022/03/02 15:42:51;;;;;;;27.73;13.40;;;;;;;;;;5014774;28;20050;-83
2022/03/02 15:45:20;;;;;;;28.05;13.20;;;;;;;;;;5009675;28;20042;-83
2022/03/02 15:47:51;;;;;;;29.63;13.38;;;;;;;;;;5006115;28;20104;-84
2022/03/02 15:50:39;;;;;;;31.55;13.40;;;;;;;;;;5007069;28;20125;-83
2022/03/02 15:53:10;;;;;;;26.67;13.00;;;;;;;;;;5011919;28;20690;-83
2022/03/02 15:56:00;;;;;;;30.15;13.68;;;;;;;;;;5011201;28;20072;-83
2022/03/02 15:58:43;;;;;;;35.83;13.38;;;;;;;;;;4995531;28;20050;-82
2022/03/02 16:01:17;;;;;;;32.83;14.60;;;;;;;;;;5012635;28;20048;-80
2022/03/02 16:03:57;;;;;;;29.50;14.63;;;;;;;;;;5009959;28;20048;-81
2022/03/02 16:06:26;;;;;;;31.30;13.52;;;;;;;;;;4993700;28;20615;-82
2022/03/02 16:08:54;;;;;;;29.85;13.50;;;;;;;;;;5012504;28;20057;-81
2022/03/02 16:11:30;;;;;;;31.60;14.50;;;;;;;;;;4994830;28;20231;-80
2022/03/02 16:14:05;;;;;;;29.05;13.57;;;;;;;;;;5026075;28;20068;-80
2022/03/02 16:16:36;;;;;;;32.70;14.95;;;;;;;;;;5029853;28;20809;-79
2022/03/02 16:19:05;;;;;;;32.50;14.82;;;;;;;;;;5012716;28;20049;-79
2022/03/02 16:21:46;;;;;;;32.70;14.73;;;;;;;;;;5023657;28;20343;-80
2022/03/02 16:24:26;;;;;;;32.33;14.02;;;;;;;;;;5027960;28;20790;-81
2022/03/02 16:27:21;;;;;;;37.67;16.05;;;;;;;;;;5025985;28;20041;-80
2022/03/02 16:29:53;;;;;;;37.60;15.02;;;;;;;;;;5026667;28;20136;-80
2022/03/02 16:32:22;;;;;;;36.17;14.98;;;;;;;;;;5010158;28;20079;-80
2022/03/02 16:34:53;;;;;;;36.53;15.82;;;;;;;;;;5038087;28;20053;-80
2022/03/02 16:37:21;;;;;;;35.97;13.80;;;;;;;;;;5033925;28;20071;-80
2022/03/02 16:40:05;;;;;;;34.13;14.93;;;;;;;;;;5037157;28;20049;-80
2022/03/02 16:42:32;;;;;;;36.53;14.98;;;;;;;;;;5030365;28;20037;-81
2022/03/02 16:45:18;;;;;;;35.15;14.52;;;;;;;;;;5021071;28;20077;-81
2022/03/02 16:47:47;;;;;;;37.38;14.95;;;;;;;;;;5005452;28;20155;-82
2022/03/02 16:50:20;;;;;;;32.30;14.40;;;;;;;;;;5033024;28;20049;-81
2022/03/02 16:52:49;;;;;;;30.35;12.65;;;;;;;;;;5040179;28;20046;-82
2022/03/02 16:55:36;;;;;;;33.53;14.15;;;;;;;;;;5018509;28;20134;-83
2022/03/02 16:58:10;;;;;;;33.22;13.73;;;;;;;;;;5033528;28;20037;-84
2022/03/02 17:00:40;;;;;;;35.90;15.05;;;;;;;;;;5018547;28;20057;-85
2022/03/02 17:03:16;;;;;;;34.42;14.75;;;;;;;;;;5022693;28;20076;-85
2022/03/02 17:05:48;;;;;;;32.92;13.35;;;;;;;;;;5035670;28;20054;-85
2022/03/02 17:08:16;;;;;;;31.45;13.25;;;;;;;;;;5019076;28;20045;-85
2022/03/02 17:10:58;;;;;;;29.95;13.20;;;;;;;;;;5014076;28;20060;-84
2022/03/02 17:13:31;;;;;;;37.22;14.75;;;;;;;;;;5026993;28;20061;-85
2022/03/02 17:15:58;;;;;;;35.58;14.43;;;;;;;;;;5034920;28;20053;-85
2022/03/02 17:18:26;;;;;;;31.67;14.25;;;;;;;;;;5038242;28;20058;-84
2022/03/02 17:20:54;;;;;;;34.10;13.93;;;;;;;;;;5015413;28;20064;-86
2022/03/02 17:23:22;;;;;;;32.30;14.13;;;;;;;;;;5017123;28;20045;-84
2022/03/02 17:25:52;;;;;;;34.47;13.82;;;;;;;;;;5035794;28;20114;-84
2022/03/02 17:28:21;;;;;;;34.33;14.38;;;;;;;;;;5029246;28;20435;-85
2022/03/02 17:30:48;;;;;;;33.00;15.13;;;;;;;;;;5029310;28;20053;-84
2022/03/02 17:33:16;;;;;;;33.75;13.88;;;;;;;;;;5014589;28;20107;-85
2022/03/02 17:35:45;;;;;;;32.15;14.65;;;;;;;;;;5018599;28;20148;-85
2022/03/02 17:38:13;;;;;;;35.38;14.70;;;;;;;;;;5029582;28;20050;-85
2022/03/02 17:40:41;;;;;;;36.10;15.48;;;;;;;;;;4997454;28;20053;-85
2022/03/02 17:43:09;;;;;;;35.47;14.63;;;;;;;;;;5031109;28;20052;-84
2022/03/02 17:45:37;;;;;;;39.15;15.13;;;;;;;;;;5035842;28;21003;-84
2022/03/02 17:48:08;;;;;;;36.42;15.32;;;;;;;;;;5027761;28;20069;-85
2022/03/02 17:51:50;;;;;;;34.67;14.65;;;;;;;;;;4981208;28;20047;-85
2022/03/02 17:54:31;;;;;;;36.10;15.05;;;;;;;;;;4969476;28;20050;-84
2022/03/02 17:57:14;;;;;;;39.50;15.02;;;;;;;;;;4976570;28;20066;-84
2022/03/02 17:59:54;;;;;;;38.15;15.15;;;;;;;;;;4987443;28;20053;-84
2022/03/02 18:02:28;;;;;;;40.83;16.17;;;;;;;;;;4977820;28;20141;-84
2022/03/02 18:05:11;;;;;;;37.05;16.45;;;;;;;;;;4975224;28;20066;-83
2022/03/02 18:07:54;;;;;;;36.47;14.40;;;;;;;;;;4986041;28;20072;-85
2022/03/02 18:10:54;;;;;;;39.15;16.60;;;;;;;;;;4973624;28;20057;-86
2022/03/02 18:14:08;;;;;;;40.42;16.25;;;;;;;;;;4955186;28;20066;-85
2022/03/02 18:17:06;;;;;;;36.83;16.08;;;;;;;;;;4918062;29;20108;-84
2022/03/02 18:20:31;;;;;;;40.78;16.73;;;;;;;;;;4924028;29;20128;-85
2022/03/02 18:24:34;;;;;;;37.78;15.48;;;;;;;;;;4956260;28;20065;-85
2022/03/02 18:28:03;;;;;;;43.20;16.33;;;;;;;;;;4934435;29;20167;-86
2022/03/02 18:30:44;;;;;;;37.00;15.93;;;;;;;;;;4945746;28;20130;-83
2022/03/02 18:33:26;;;;;;;39.58;15.68;;;;;;;;;;4935614;28;20423;-82
2022/03/02 18:35:57;;;;;;;37.80;15.93;;;;;;;;;;4933809;29;20146;-82
2022/03/02 18:38:25;;;;;;;43.78;16.55;;;;;;;;;;4948301;28;20055;-83
2022/03/02 18:40:52;;;;;;;34.90;16.13;;;;;;;;;;4933695;29;20114;-82
2022/03/02 18:43:20;;;;;;;35.70;15.93;;;;;;;;;;4939250;29;20082;-81
2022/03/02 18:45:48;;;;;;;41.85;17.05;;;;;;;;;;4965137;28;20094;-80
2022/03/02 18:48:16;;;;;;;34.95;14.98;;;;;;;;;;4965196;28;20055;-83
2022/03/02 18:50:48;;;;;;;38.63;17.30;;;;;;;;;;4970990;28;20107;-82
2022/03/02 18:53:16;;;;;;;40.03;17.02;;;;;;;;;;4961005;28;20066;-82
2022/03/02 18:55:48;;;;;;;45.20;17.50;;;;;;;;;;4970915;28;20055;-84
2022/03/02 18:58:50;;;;;;;44.05;18.60;;;;;;;;;;5021061;28;20476;-86
2022/03/02 19:17:30;;;;;;;52.22;18.15;;;;;;;;;;4988750;28;20050;-85
2022/03/02 19:22:20;;;;;;;45.78;17.92;;;;;;;;;;4936820;29;20062;-86
2022/03/02 19:49:51;;;;;;;49.03;18.25;;;;;;;;;;4858322;29;20143;-83
2022/03/02 19:53:43;;;;;;;46.20;18.30;;;;;;;;;;4857705;29;20254;-84
2022/03/02 20:03:00;;;;;;;47.42;17.52;;;;;;;;;;4915120;29;20039;-83
2022/03/02 20:16:51;;;;;;;48.22;18.10;;;;;;;;;;4869949;29;20032;-86
2022/03/02 20:44:50;;;;;;;43.17;17.05;;;;;;;;;;4786394;29;20519;-85
2022/03/02 20:56:43;;;;;;;44.72;17.02;;;;;;;;;;4858183;29;20129;-85
2022/03/02 20:59:24;;;;;;;44.10;16.40;;;;;;;;;;4826536;29;20148;-84
2022/03/02 21:03:54;;;;;;;40.85;17.05;;;;;;;;;;4828901;29;20050;-85
2022/03/02 21:08:11;;;;;;;44.72;15.68;;;;;;;;;;4883358;29;20061;-85
2022/03/02 21:11:12;;;;;;;38.15;15.77;;;;;;;;;;4831254;29;20088;-85
2022/03/02 21:14:02;;;;;;;39.72;16.30;;;;;;;;;;4850908;29;20136;-85
2022/03/02 21:17:42;;;;;;;40.08;15.15;;;;;;;;;;4862109;29;20053;-86
2022/03/02 21:25:49;;;;;;;39.47;14.70;;;;;;;;;;4873448;29;20092;-83
2022/03/02 21:28:24;;;;;;;42.88;17.15;;;;;;;;;;4845392;29;20073;-81
2022/03/02 21:30:53;;;;;;;45.58;17.13;;;;;;;;;;4860504;29;20049;-81
2022/03/02 21:33:24;;;;;;;44.58;17.05;;;;;;;;;;4871992;29;20058;-81
2022/03/02 21:35:52;;;;;;;44.40;15.25;;;;;;;;;;4888877;29;20148;-83
2022/03/02 21:38:20;;;;;;;46.65;17.92;;;;;;;;;;4893297;29;20052;-83
2022/03/02 21:40:48;;;;;;;39.58;16.83;;;;;;;;;;4898614;28;20168;-82
2022/03/02 21:43:16;;;;;;;42.67;17.05;;;;;;;;;;4937343;28;20537;-83